Time;durP1;ratioP1;P1;durP2;ratioP2;P2;SDS_P1;SDS_P2;PMS_P1;PMS_P2;Temp;Humidity;BMP_temperature;BMP_pressure;BME280_temperature;BME280_humidity;BME280_pressure;Samples;Min_cycle;Max_cycle;Signal;HPM_P1;HPM_P2
2022/02/01 00:03:08;;;;;;;95.00;47.20;;;;;;;-0.59;100.00;98016.50;105261;1271;61271;-77
2022/02/01 00:05:45;;;;;;;97.20;47.50;;;;;;;-0.58;100.00;98017.01;105316;1271;69183;-79
2022/02/01 00:08:36;;;;;;;92.10;48.50;;;;;;;-0.58;100.00;98016.83;105261;1271;73198;-78
2022/02/01 00:11:17;;;;;;;92.80;50.40;;;;;;;-0.58;100.00;98015.44;105231;1271;61266;-77
2022/02/01 00:34:01;;;;;;;109.40;55.90;;;;;;;-0.58;100.00;98016.83;105267;1271;66781;-77
2022/02/01 00:36:17;;;;;;;107.50;57.20;;;;;;;-0.58;100.00;98025.92;105173;1271;73324;-78
2022/02/01 00:41:05;;;;;;;113.40;59.60;;;;;;;-0.57;100.00;98034.92;105263;1271;61241;-78
2022/02/01 00:43:33;;;;;;;101.20;57.30;;;;;;;-0.57;100.00;98039.46;104928;1271;74106;-78
2022/02/01 00:46:02;;;;;;;109.30;59.50;;;;;;;-0.58;100.00;98035.84;105019;1273;69598;-78
2022/02/01 00:48:30;;;;;;;107.80;57.30;;;;;;;-0.58;100.00;98035.83;105316;1271;74458;-78
2022/02/01 00:50:57;;;;;;;104.90;57.50;;;;;;;-0.58;100.00;98044.56;105190;1273;61273;-79
2022/02/01 00:53:29;;;;;;;107.10;56.50;;;;;;;-0.58;100.00;98044.03;105233;1271;62045;-78
2022/02/01 00:55:57;;;;;;;104.90;56.80;;;;;;;-0.58;100.00;98047.35;105276;1270;75298;-79
2022/02/01 00:58:25;;;;;;;105.10;59.10;;;;;;;-0.56;100.00;98050.75;105243;1271;69216;-78
2022/02/01 01:00:53;;;;;;;111.80;60.70;;;;;;;-0.54;100.00;98046.70;105467;1270;73205;-77
2022/02/01 01:03:22;;;;;;;115.20;58.60;;;;;;;-0.54;100.00;98045.29;105215;1271;61179;-77
2022/02/01 01:05:50;;;;;;;116.60;58.70;;;;;;;-0.55;100.00;98047.41;105280;1271;61750;-77
2022/02/01 01:08:17;;;;;;;112.70;59.70;;;;;;;-0.55;100.00;98045.67;105290;1271;75314;-78
2022/02/01 01:10:43;;;;;;;113.80;56.60;;;;;;;-0.55;100.00;98047.60;105296;1270;69201;-78
2022/02/01 01:15:59;;;;;;;115.50;56.80;;;;;;;-0.55;100.00;98056.16;105206;1271;61334;-76
2022/02/01 01:54:07;;;;;;;104.90;53.20;;;;;;;-0.54;100.00;98084.88;105237;1271;74053;-78
2022/02/01 01:56:36;;;;;;;104.30;53.70;;;;;;;-0.54;100.00;98083.52;105257;1271;61382;-77
2022/02/01 01:59:05;;;;;;;106.10;50.90;;;;;;;-0.54;100.00;98086.30;105237;1271;61975;-78
2022/02/01 02:01:34;;;;;;;103.40;51.50;;;;;;;-0.55;100.00;98089.46;105435;1271;75889;-78
2022/02/01 02:04:02;;;;;;;94.30;48.30;;;;;;;-0.55;100.00;98095.74;105357;1271;69492;-78
2022/02/01 02:06:31;;;;;;;99.10;50.60;;;;;;;-0.55;100.00;98094.35;105016;1271;73329;-76
2022/02/01 02:09:04;;;;;;;97.40;50.70;;;;;;;-0.56;100.00;98099.44;105253;1271;61377;-78
2022/02/01 02:11:42;;;;;;;96.20;51.00;;;;;;;-0.55;100.00;98107.63;105239;1271;61767;-78
2022/02/01 02:14:23;;;;;;;94.40;49.80;;;;;;;-0.55;100.00;98111.79;105238;1271;75135;-79
2022/02/01 02:16:57;;;;;;;100.30;51.70;;;;;;;-0.53;100.00;98116.43;105263;1269;69358;-78
2022/02/01 02:19:27;;;;;;;94.70;50.10;;;;;;;-0.53;100.00;98126.00;105217;1271;74500;-77
2022/02/01 02:22:02;;;;;;;94.60;51.50;;;;;;;-0.53;100.00;98131.95;105235;1271;61303;-78
2022/02/01 02:24:31;;;;;;;98.50;53.20;;;;;;;-0.54;100.00;98133.05;105102;1271;61319;-77
2022/02/01 02:26:59;;;;;;;98.00;50.50;;;;;;;-0.54;100.00;98126.77;105275;1270;74713;-77
2022/02/01 02:29:27;;;;;;;97.70;50.80;;;;;;;-0.54;100.00;98133.23;105216;1271;69342;-77
2022/02/01 02:31:54;;;;;;;97.10;51.70;;;;;;;-0.55;100.00;98139.35;105136;1274;71476;-77
2022/02/01 02:34:21;;;;;;;107.80;54.40;;;;;;;-0.55;100.00;98143.55;105267;1271;61272;-77
2022/02/01 02:36:55;;;;;;;99.20;51.00;;;;;;;-0.55;100.00;98143.02;105304;1271;62006;-78
2022/02/01 02:39:47;;;;;;;92.40;50.90;;;;;;;-0.55;100.00;98145.48;105318;1271;74162;-78
2022/02/01 02:42:15;;;;;;;98.40;51.30;;;;;;;-0.54;100.00;98147.52;105276;1271;69529;-78
2022/02/01 02:47:30;;;;;;;104.00;53.30;;;;;;;-0.54;100.00;98148.37;105219;1269;61288;-78
2022/02/01 02:49:57;;;;;;;106.90;53.30;;;;;;;-0.52;100.00;98150.77;105246;1271;61234;-78
2022/02/01 02:52:26;;;;;;;107.00;54.70;;;;;;;-0.51;100.00;98147.22;105284;1270;75202;-77
2022/02/01 02:54:57;;;;;;;107.80;53.40;;;;;;;-0.51;100.00;98147.39;105244;1271;69411;-78
2022/02/01 02:57:25;;;;;;;106.70;57.10;;;;;;;-0.51;100.00;98149.85;105308;1271;73441;-77
2022/02/01 02:59:52;;;;;;;103.80;54.20;;;;;;;-0.51;100.00;98155.63;105386;1270;61282;-77
2022/02/01 03:02:19;;;;;;;105.00;53.30;;;;;;;-0.51;100.00;98163.11;105273;1271;61273;-77
2022/02/01 03:04:46;;;;;;;103.80;53.70;;;;;;;-0.51;100.00;98162.94;105235;1270;75365;-75
2022/02/01 03:07:13;;;;;;;100.60;52.90;;;;;;;-0.50;100.00;98166.20;105269;1271;69186;-77
2022/02/01 03:09:42;;;;;;;93.60;50.20;;;;;;;-0.49;100.00;98171.92;105250;1270;74698;-78
2022/02/01 03:12:13;;;;;;;98.60;53.00;;;;;;;-0.48;100.00;98181.13;105224;1271;61297;-78
2022/02/01 03:14:55;;;;;;;99.10;53.90;;;;;;;-0.47;100.00;98177.46;105277;1271;61136;-80
2022/02/01 03:19:47;;;;;;;97.00;52.20;;;;;;;-0.47;100.00;98177.11;105226;1271;76417;-78
2022/02/01 03:20:13;;;;;;;104.40;53.40;;;;;;;-0.48;100.00;98181.85;105243;1271;70297;-79
2022/02/01 03:22:40;;;;;;;93.00;51.50;;;;;;;-0.49;100.00;98192.70;105272;1271;73324;-78
2022/02/01 03:25:10;;;;;;;100.60;50.10;;;;;;;-0.48;100.00;98197.37;104950;1274;61410;-79
2022/02/01 03:27:37;;;;;;;92.80;47.50;;;;;;;-0.49;100.00;98201.43;105249;1271;61237;-79
2022/02/01 03:30:04;;;;;;;92.80;52.30;;;;;;;-0.50;100.00;98198.14;105298;1271;74570;-79
2022/02/01 03:32:30;;;;;;;99.50;50.70;;;;;;;-0.50;100.00;98196.76;104955;1271;70673;-80
2022/02/01 03:34:57;;;;;;;94.40;50.80;;;;;;;-0.49;100.00;98193.94;105217;1271;61265;-77
2022/02/01 03:37:23;;;;;;;98.30;50.50;;;;;;;-0.50;100.00;98189.59;104990;1271;61355;-77
2022/02/01 03:39:50;;;;;;;101.10;50.20;;;;;;;-0.49;100.00;98200.22;105241;1270;61602;-78
2022/02/01 03:42:17;;;;;;;89.80;48.30;;;;;;;-0.51;100.00;98203.44;105243;1271;76169;-78
2022/02/01 03:44:44;;;;;;;90.70;48.90;;;;;;;-0.53;100.00;98202.25;105008;1271;69826;-77
2022/02/01 03:47:10;;;;;;;101.70;51.10;;;;;;;-0.55;100.00;98196.57;105273;1270;72689;-77
2022/02/01 03:49:41;;;;;;;102.80;53.40;;;;;;;-0.57;100.00;98191.05;105246;1271;61285;-78
2022/02/01 03:52:10;;;;;;;102.10;55.60;;;;;;;-0.59;100.00;98193.42;105168;1274;61189;-78
2022/02/01 03:54:38;;;;;;;102.30;56.80;;;;;;;-0.62;100.00;98193.34;105273;1271;75271;-78
2022/02/01 03:57:07;;;;;;;97.60;54.40;;;;;;;-0.63;100.00;98200.52;105260;1271;70102;-79
2022/02/01 03:59:34;;;;;;;;;;;;;;;-0.64;100.00;98212.77;105255;1271;73640;-78
2022/02/01 04:02:03;;;;;;;102.30;52.70;;;;;;;-0.64;100.00;98220.81;105248;1271;61201;-78
2022/02/01 04:04:32;;;;;;;94.10;46.80;;;;;;;-0.63;100.00;98219.02;105242;1271;61196;-78
2022/02/01 04:07:00;;;;;;;94.20;48.50;;;;;;;-0.62;100.00;98222.30;105291;1272;76567;-78
2022/02/01 04:09:27;;;;;;;93.30;46.00;;;;;;;-0.59;100.00;98219.59;105012;1274;68713;-77
2022/02/01 04:11:56;;;;;;;90.40;43.70;;;;;;;-0.57;100.00;98215.67;105260;1271;74431;-77
2022/02/01 04:14:27;;;;;;;87.10;42.90;;;;;;;-0.57;100.00;98215.14;105369;1271;61251;-79
2022/02/01 04:16:55;;;;;;;89.10;45.00;;;;;;;-0.58;100.00;98216.73;105251;1271;61345;-78
2022/02/01 04:19:22;;;;;;;77.90;42.60;;;;;;;-0.58;100.00;98213.95;105326;1271;75320;-78
2022/02/01 04:22:00;;;;;;;79.20;37.50;;;;;;;-0.56;100.00;98216.50;105246;1271;69818;-77
2022/02/01 04:24:39;;;;;;;82.70;38.10;;;;;;;-0.55;100.00;98214.20;105220;1269;74363;-78
2022/02/01 04:27:08;;;;;;;80.50;36.30;;;;;;;-0.53;100.00;98215.86;105429;1271;61405;-80
2022/02/01 04:29:42;;;;;;;76.70;36.10;;;;;;;-0.52;100.00;98223.86;105251;1271;61360;-78
2022/02/01 04:32:09;;;;;;;70.20;31.30;;;;;;;-0.51;100.00;98230.10;105270;1271;76410;-80
2022/02/01 04:34:35;;;;;;;61.50;29.90;;;;;;;-0.50;100.00;98238.27;105268;1271;68828;-79
2022/02/01 04:37:02;;;;;;;58.10;28.30;;;;;;;-0.48;100.00;98248.66;105273;1271;61638;-77
2022/02/01 04:39:28;;;;;;;58.70;28.70;;;;;;;-0.47;100.00;98247.77;104962;1274;61475;-79
2022/02/01 04:41:55;;;;;;;54.80;28.50;;;;;;;-0.47;100.00;98244.78;105272;1271;61282;-79
2022/02/01 04:44:23;;;;;;;49.10;21.60;;;;;;;-0.46;100.00;98246.35;104297;1274;1003636;-79
2022/02/01 04:46:50;;;;;;;57.00;25.30;;;;;;;-0.46;100.00;98247.73;105284;1271;69173;-79
2022/02/01 04:49:16;;;;;;;43.00;21.50;;;;;;;-0.46;100.00;98248.59;105258;1271;61375;-79
2022/02/01 04:51:43;;;;;;;49.40;23.90;;;;;;;-0.46;100.00;98241.64;105200;1271;61216;-79
2022/02/01 04:54:10;;;;;;;59.40;23.50;;;;;;;-0.46;100.00;98246.00;105296;1271;61245;-79
2022/02/01 04:56:37;;;;;;;48.00;24.40;;;;;;;-0.46;100.00;98247.74;105240;1271;74060;-77
2022/02/01 04:59:04;;;;;;;51.10;25.70;;;;;;;-0.46;100.00;98230.09;105299;1271;69586;-77
2022/02/01 05:01:37;;;;;;;48.40;24.10;;;;;;;-0.46;100.00;98240.77;105254;1271;74169;-77
2022/02/01 05:04:05;;;;;;;41.30;21.90;;;;;;;-0.46;100.00;98253.48;105244;1271;61335;-79
2022/02/01 05:06:32;;;;;;;44.80;22.00;;;;;;;-0.48;100.00;98260.52;104519;1271;1003472;-79
2022/02/01 05:08:59;;;;;;;48.20;23.50;;;;;;;-0.48;100.00;98263.50;105296;1272;75130;-78
2022/02/01 05:11:25;;;;;;;50.60;22.30;;;;;;;-0.48;100.00;98269.09;105302;1271;69114;-79
2022/02/01 05:14:14;;;;;;;50.70;24.60;;;;;;;-0.50;100.00;98274.39;105323;1271;74142;-76
2022/02/01 05:16:45;;;;;;;49.70;24.10;;;;;;;-0.49;100.00;98274.52;105281;1271;61394;-77
2022/02/01 05:19:24;;;;;;;43.70;22.50;;;;;;;-0.49;100.00;98274.36;105115;1274;61373;-78
2022/02/01 05:21:52;;;;;;;56.20;25.30;;;;;;;-0.51;100.00;98272.15;105243;1272;74133;-78
2022/02/01 05:24:20;;;;;;;43.80;20.80;;;;;;;-0.52;100.00;98282.84;105256;1273;68318;-76
2022/02/01 05:26:47;;;;;;;51.30;24.50;;;;;;;-0.55;100.00;98290.10;105516;1271;73205;-77
2022/02/01 05:29:14;;;;;;;51.00;24.40;;;;;;;-0.57;100.00;98295.92;105323;1273;61297;-78
2022/02/01 05:31:40;;;;;;;49.20;24.00;;;;;;;-0.59;100.00;98299.66;105403;1271;61319;-79
2022/02/01 05:34:07;;;;;;;45.50;24.00;;;;;;;-0.62;100.00;98304.09;105407;1271;61265;-77
2022/02/01 05:36:33;;;;;;;39.20;22.20;;;;;;;-0.64;100.00;98304.69;105455;1271;61365;-77
2022/02/01 05:39:13;;;;;;;40.40;20.40;;;;;;;-0.66;100.00;98309.46;105578;1270;61246;-79
2022/02/01 05:41:40;;;;;;;42.40;20.00;;;;;;;-0.69;100.00;98315.50;105613;1271;61265;-79
2022/02/01 05:44:06;;;;;;;41.50;20.40;;;;;;;-0.70;100.00;98318.16;105868;1270;61224;-79
2022/02/01 05:46:36;;;;;;;47.40;21.30;;;;;;;-0.71;100.00;98316.94;105737;1274;73805;-79
2022/02/01 05:49:04;;;;;;;43.00;21.10;;;;;;;-0.71;100.00;98316.26;106109;1270;69404;-78
2022/02/01 05:51:33;;;;;;;42.20;20.70;;;;;;;-0.73;100.00;98318.77;107089;1271;72542;-79
2022/02/01 05:54:01;;;;;;;46.90;25.80;;;;;;;-0.75;100.00;98320.38;106924;1273;60167;-78
2022/02/01 05:56:29;;;;;;;44.80;22.00;;;;;;;-0.76;100.00;98322.36;107391;1270;61242;-78
2022/02/01 05:58:55;;;;;;;44.90;21.40;;;;;;;-0.80;100.00;98325.25;107391;1271;75116;-80
2022/02/01 06:01:22;;;;;;;50.60;23.80;;;;;;;-0.81;100.00;98335.60;106030;1271;69326;-79
2022/02/01 06:03:48;;;;;;;50.00;24.20;;;;;;;-0.83;100.00;98340.17;105351;1271;74857;-78
2022/02/01 06:06:15;;;;;;;51.30;27.20;;;;;;;-0.83;100.00;98339.51;105340;1271;61274;-79
2022/02/01 06:08:42;;;;;;;51.30;28.10;;;;;;;-0.84;100.00;98339.88;105058;1274;62446;-79
2022/02/01 06:11:08;;;;;;;62.90;31.70;;;;;;;-0.85;100.00;98344.27;105349;1271;61262;-79
2022/02/01 06:13:36;;;;;;;70.50;33.70;;;;;;;-0.86;100.00;98343.25;105043;1271;61163;-77
2022/02/01 06:16:04;;;;;;;67.10;32.10;;;;;;;-0.87;100.00;98343.29;105240;1271;74578;-78
2022/02/01 06:18:31;;;;;;;49.50;27.90;;;;;;;-0.89;100.00;98347.20;105268;1269;61594;-78
2022/02/01 06:20:59;;;;;;;55.70;26.50;;;;;;;-0.90;100.00;98354.52;105254;1271;61281;-80
2022/02/01 06:23:27;;;;;;;50.00;26.10;;;;;;;-0.90;100.00;98354.87;105216;1271;76538;-80
2022/02/01 06:25:56;;;;;;;45.60;23.80;;;;;;;-0.90;100.00;98360.28;105266;1271;70298;-77
2022/02/01 06:28:25;;;;;;;51.10;25.50;;;;;;;-0.90;100.00;98364.45;104848;1272;73659;-78
2022/02/01 06:30:53;;;;;;;51.70;24.40;;;;;;;-0.89;100.00;98365.84;105384;1271;61208;-77
2022/02/01 06:33:21;;;;;;;49.60;25.20;;;;;;;-0.88;100.00;98369.11;105404;1271;61387;-78
2022/02/01 06:35:48;;;;;;;42.20;24.00;;;;;;;-0.86;100.00;98370.29;105045;1274;75211;-78
2022/02/01 06:38:15;;;;;;;43.20;22.00;;;;;;;-0.84;100.00;98373.36;105261;1271;70122;-76
2022/02/01 06:40:44;;;;;;;38.00;19.80;;;;;;;-0.82;100.00;98374.34;105231;1271;73542;-77
2022/02/01 06:43:12;;;;;;;42.70;21.40;;;;;;;-0.80;100.00;98380.91;105275;1271;61307;-79
2022/02/01 06:45:40;;;;;;;39.00;19.80;;;;;;;-0.78;100.00;98386.08;105329;1271;61263;-79
2022/02/01 06:48:07;;;;;;;51.40;24.10;;;;;;;-0.76;100.00;98387.40;105357;1271;75173;-80
2022/02/01 06:50:34;;;;;;;51.50;25.20;;;;;;;-0.72;100.00;98382.76;105269;1271;70526;-79
2022/02/01 06:53:02;;;;;;;51.90;24.70;;;;;;;-0.67;100.00;98383.98;105262;1269;71273;-81
2022/02/01 06:58:15;;;;;;;48.90;25.40;;;;;;;-0.55;100.00;98391.46;105041;1271;61306;-78
2022/02/01 07:00:43;;;;;;;47.90;27.00;;;;;;;-0.49;100.00;98394.41;105194;1270;75437;-79
2022/02/01 07:03:09;;;;;;;43.00;25.70;;;;;;;-0.46;100.00;98395.71;105244;1271;70146;-78
2022/02/01 07:05:36;;;;;;;51.00;28.30;;;;;;;-0.43;100.00;98395.27;105264;1271;74156;-79
2022/02/01 07:08:03;;;;;;;57.90;28.80;;;;;;;-0.39;100.00;98397.59;105244;1271;61284;-79
2022/02/01 07:10:30;;;;;;;59.40;30.80;;;;;;;-0.37;100.00;98399.10;105286;1271;61256;-79
2022/02/01 07:12:56;;;;;;;64.50;28.60;;;;;;;-0.36;100.00;98402.55;105262;1271;76194;-77
2022/02/01 07:15:23;;;;;;;58.00;28.90;;;;;;;-0.35;100.00;98401.45;105245;1271;70315;-81
2022/02/01 07:17:52;;;;;;;60.80;29.20;;;;;;;-0.32;100.00;98398.76;105231;1270;74588;-82
2022/02/01 07:20:20;;;;;;;66.00;31.50;;;;;;;-0.25;100.00;98405.15;105296;1269;61237;-80
2022/02/01 07:22:48;;;;;;;65.00;29.80;;;;;;;-0.19;100.00;98406.88;105235;1271;61220;-79
2022/02/01 07:27:55;;;;;;;55.20;29.10;;;;;;;-0.12;100.00;98416.09;105245;1271;69318;-80
2022/02/01 07:30:27;;;;;;;55.00;29.10;;;;;;;-0.12;100.00;98417.81;105364;1271;72201;-79
2022/02/01 07:32:58;;;;;;;65.30;29.60;;;;;;;-0.12;100.00;98422.89;105342;1271;61273;-78
2022/02/01 07:35:26;;;;;;;63.20;29.20;;;;;;;-0.11;100.00;98426.50;105233;1272;61285;-81
2022/02/01 07:37:54;;;;;;;57.00;30.20;;;;;;;-0.12;100.00;98430.54;105874;1271;74058;-79
2022/02/01 07:40:21;;;;;;;58.60;28.80;;;;;;;-0.15;100.00;98431.17;105770;1269;69355;-80
2022/02/01 07:42:49;;;;;;;56.10;28.20;;;;;;;-0.17;100.00;98432.30;105733;1268;73387;-82
2022/02/01 07:45:18;;;;;;;59.20;29.30;;;;;;;-0.18;100.00;98431.99;104990;1268;1003081;-79
2022/02/01 07:47:45;;;;;;;55.60;28.30;;;;;;;-0.18;100.00;98434.78;105679;1268;61412;-76
2022/02/01 07:50:12;;;;;;;53.00;29.80;;;;;;;-0.19;100.00;98430.61;105284;1268;75685;-79
2022/02/01 07:52:39;;;;;;;62.50;31.50;;;;;;;-0.17;100.00;98432.47;105320;1268;69953;-80
2022/02/01 07:55:06;;;;;;;65.80;30.30;;;;;;;-0.11;100.00;98431.40;105280;1268;74408;-77
2022/02/01 07:57:33;;;;;;;66.80;29.80;;;;;;;-0.03;100.00;98433.05;105308;1269;61273;-77
2022/02/01 07:59:59;;;;;;;59.50;28.70;;;;;;;0.01;100.00;98437.80;105260;1268;61400;-78
2022/02/01 08:02:26;;;;;;;47.20;23.40;;;;;;;0.07;100.00;98441.29;105226;1268;61285;-77
2022/02/01 08:04:57;;;;;;;45.60;21.30;;;;;;;0.11;100.00;98437.14;105060;1274;70206;-78
2022/02/01 08:07:24;;;;;;;51.60;22.80;;;;;;;0.17;100.00;98434.46;105274;1268;74378;-79
2022/02/01 08:09:56;;;;;;;54.00;23.70;;;;;;;0.25;100.00;98434.73;105299;1268;61368;-79
2022/02/01 08:20:13;;;;;;;56.00;26.00;;;;;;;0.73;100.00;98430.77;105244;1268;74297;-79
2022/02/01 08:25:16;;;;;;;43.10;25.20;;;;;;;0.95;100.00;98441.18;105252;1268;61263;-80
2022/02/01 08:27:43;;;;;;;44.50;24.80;;;;;;;1.03;100.00;98437.52;105285;1268;76111;-81
2022/02/01 08:30:11;;;;;;;48.40;25.40;;;;;;;1.16;100.00;98438.63;105291;1268;69262;-78
2022/02/01 08:32:38;;;;;;;50.30;24.00;;;;;;;1.26;100.00;98442.98;105495;1268;73694;-78
2022/02/01 08:35:05;;;;;;;47.80;26.90;;;;;;;1.25;100.00;98442.85;105417;1268;61256;-78
2022/02/01 08:37:33;;;;;;;48.80;27.50;;;;;;;1.18;100.00;98437.68;105392;1268;61296;-77
2022/02/01 08:39:59;;;;;;;51.10;27.10;;;;;;;1.11;100.00;98441.25;105358;1271;74474;-80
2022/02/01 08:42:26;;;;;;;56.00;28.10;;;;;;;1.03;100.00;98441.36;105296;1268;70313;-77
2022/02/01 08:44:53;;;;;;;49.40;26.80;;;;;;;1.02;100.00;98441.08;105323;1268;71453;-78
2022/02/01 08:47:20;;;;;;;52.70;28.20;;;;;;;1.04;100.00;98438.55;105306;1268;61361;-77
2022/02/01 08:49:47;;;;;;;50.30;28.20;;;;;;;1.09;100.00;98438.36;105317;1268;61205;-79
2022/02/01 08:55:19;;;;;;;53.00;26.70;;;;;;;1.20;100.00;98430.43;104990;1268;70495;-80
2022/02/01 08:57:49;;;;;;;49.50;24.80;;;;;;;1.30;100.00;98432.70;105040;1268;73360;-81
2022/02/01 09:00:17;;;;;;;44.40;24.20;;;;;;;1.45;100.00;98437.16;105433;1268;61349;-81
2022/02/01 09:02:45;;;;;;;39.50;22.60;;;;;;;1.59;100.00;98436.10;105314;1268;61211;-81
2022/02/01 09:05:11;;;;;;;40.10;24.70;;;;;;;1.73;100.00;98436.59;105059;1269;76279;-80
2022/02/01 09:07:38;;;;;;;42.90;25.00;;;;;;;1.88;100.00;98439.33;105299;1268;69243;-81
2022/02/01 09:10:06;;;;;;;42.70;24.20;;;;;;;2.03;100.00;98442.54;105317;1268;74460;-82
2022/02/01 09:12:32;;;;;;;41.50;23.50;;;;;;;2.11;100.00;98444.86;105254;1268;61171;-79
2022/02/01 09:14:59;;;;;;;38.70;21.70;;;;;;;2.20;100.00;98441.83;105352;1268;61697;-79
2022/02/01 09:17:26;;;;;;;37.20;21.00;;;;;;;2.40;100.00;98443.98;105411;1268;75017;-79
2022/02/01 09:19:53;;;;;;;30.20;17.20;;;;;;;2.45;99.93;98443.95;105303;1268;61352;-78
2022/02/01 09:22:20;;;;;;;29.40;17.50;;;;;;;2.39;99.30;98444.19;105304;1268;61287;-79
2022/02/01 09:24:47;;;;;;;27.10;15.90;;;;;;;2.28;98.78;98442.37;105329;1268;61358;-78
2022/02/01 09:27:14;;;;;;;30.10;17.80;;;;;;;2.19;99.15;98451.52;105339;1268;61357;-79
2022/02/01 09:29:41;;;;;;;30.20;18.00;;;;;;;2.15;99.60;98455.90;105161;1268;75190;-81
2022/02/01 09:32:07;;;;;;;34.40;18.10;;;;;;;2.09;98.77;98462.45;105305;1268;68717;-82
2022/02/01 09:34:34;;;;;;;30.50;18.30;;;;;;;2.03;98.70;98456.90;105416;1268;73580;-78
2022/02/01 09:37:05;;;;;;;32.00;19.00;;;;;;;2.01;98.21;98452.95;105697;1268;61273;-79
2022/02/01 09:39:32;;;;;;;30.10;16.80;;;;;;;2.03;98.26;98454.46;105890;1268;61268;-79
2022/02/01 09:42:00;;;;;;;32.70;17.50;;;;;;;2.09;98.13;98446.52;105421;1269;74824;-81
2022/02/01 09:44:27;;;;;;;34.90;18.90;;;;;;;2.17;98.31;98438.10;105497;1268;70145;-79
2022/02/01 09:46:54;;;;;;;31.80;17.80;;;;;;;2.31;98.62;98431.55;105277;1268;73153;-79
2022/02/01 09:49:24;;;;;;;32.20;18.50;;;;;;;2.38;97.84;98435.63;105306;1268;61176;-79
2022/02/01 09:51:57;;;;;;;35.20;17.40;;;;;;;2.34;96.93;98434.07;105350;1268;61370;-80
2022/02/01 09:54:29;;;;;;;33.40;18.60;;;;;;;2.27;96.22;98438.94;105378;1268;75041;-81
2022/02/01 09:56:59;;;;;;;29.40;15.70;;;;;;;2.18;95.19;98436.64;105183;1271;69322;-82
2022/02/01 09:59:32;;;;;;;26.50;16.30;;;;;;;2.16;94.61;98436.74;105467;1268;73428;-80
2022/02/01 10:02:12;;;;;;;26.20;15.00;;;;;;;2.29;95.49;98429.00;105194;1269;61278;-79
2022/02/01 10:04:39;;;;;;;30.80;17.80;;;;;;;2.49;94.49;98427.10;105321;1268;61680;-82
2022/02/01 10:07:08;;;;;;;36.50;19.90;;;;;;;2.68;94.83;98422.42;105418;1268;76452;-80
2022/02/01 10:09:35;;;;;;;36.70;19.50;;;;;;;2.81;94.25;98419.73;105293;1268;70128;-78
2022/02/01 10:12:02;;;;;;;36.60;20.60;;;;;;;2.84;94.73;98425.92;105417;1268;72239;-79
2022/02/01 10:14:39;;;;;;;34.60;20.30;;;;;;;2.89;94.32;98433.79;105296;1268;61360;-81
2022/02/01 10:17:09;;;;;;;38.70;23.20;;;;;;;2.82;94.01;98427.56;105376;1268;61242;-78
2022/02/01 10:19:46;;;;;;;47.10;24.40;;;;;;;2.74;94.31;98429.71;105304;1270;76386;-77
2022/02/01 10:22:14;;;;;;;31.80;19.70;;;;;;;2.74;95.08;98428.48;105207;1271;69326;-78
2022/02/01 10:24:42;;;;;;;32.90;20.10;;;;;;;2.72;94.15;98430.31;105266;1270;74999;-79
2022/02/01 10:27:08;;;;;;;29.70;15.90;;;;;;;2.67;93.74;98425.97;105074;1271;61292;-79
2022/02/01 10:29:38;;;;;;;28.00;16.70;;;;;;;2.63;93.16;98428.77;105313;1271;61698;-77
2022/02/01 10:32:15;;;;;;;30.50;16.30;;;;;;;2.59;93.56;98423.85;105077;1272;75453;-77
2022/02/01 10:34:44;;;;;;;25.50;13.50;;;;;;;2.57;93.46;98420.64;105343;1271;69477;-77
2022/02/01 10:37:18;;;;;;;23.20;14.00;;;;;;;2.50;93.60;98419.54;105029;1272;73602;-77
2022/02/01 10:39:48;;;;;;;22.40;12.80;;;;;;;2.46;94.29;98409.55;105282;1271;61285;-78
2022/02/01 10:42:16;;;;;;;37.50;16.90;;;;;;;2.40;94.36;98399.61;105396;1271;61207;-76
2022/02/01 10:44:44;;;;;;;32.60;15.70;;;;;;;2.41;94.41;98397.67;105535;1271;75339;-77
2022/02/01 10:47:16;;;;;;;29.00;12.60;;;;;;;2.40;94.24;98394.33;105289;1271;69222;-77
2022/02/01 10:49:44;;;;;;;29.30;15.80;;;;;;;2.35;94.05;98396.67;105363;1269;73531;-76
2022/02/01 10:52:15;;;;;;;23.80;13.20;;;;;;;2.27;94.18;98403.01;105333;1271;61255;-78
2022/02/01 10:54:43;;;;;;;26.50;14.10;;;;;;;2.17;93.92;98402.52;105309;1270;61160;-76
2022/02/01 10:57:12;;;;;;;24.00;12.70;;;;;;;2.13;94.23;98398.14;105275;1270;75374;-76
2022/02/01 10:59:39;;;;;;;33.00;18.00;;;;;;;2.12;94.25;98390.48;105553;1271;68165;-76
2022/02/01 11:02:06;;;;;;;24.10;14.70;;;;;;;2.16;94.56;98385.77;105276;1271;72234;-76
2022/02/01 11:04:37;;;;;;;28.00;14.10;;;;;;;2.22;94.75;98380.42;105292;1270;61250;-75
2022/02/01 11:07:05;;;;;;;29.80;15.20;;;;;;;2.25;94.10;98382.20;105568;1269;61487;-76
2022/02/01 11:09:34;;;;;;;29.60;16.80;;;;;;;2.19;94.31;98383.19;105275;1270;76406;-75
2022/02/01 11:12:06;;;;;;;28.20;15.50;;;;;;;2.16;94.90;98377.17;105407;1271;69254;-75
2022/02/01 11:14:46;;;;;;;31.00;17.80;;;;;;;2.16;94.91;98368.42;105356;1271;74356;-77
2022/02/01 11:17:18;;;;;;;27.90;16.20;;;;;;;2.09;94.76;98375.20;105308;1270;61374;-77
2022/02/01 11:19:47;;;;;;;25.30;14.60;;;;;;;2.06;95.06;98374.28;104998;1271;61446;-75
2022/02/01 11:22:30;;;;;;;25.10;15.40;;;;;;;2.11;95.15;98376.88;105287;1271;76092;-76
2022/02/01 11:25:00;;;;;;;30.10;17.30;;;;;;;2.20;95.32;98372.95;105282;1271;69164;-77
2022/02/01 11:27:46;;;;;;;26.00;14.90;;;;;;;2.31;95.10;98361.80;104983;1271;71491;-77
2022/02/01 11:30:13;;;;;;;24.80;15.40;;;;;;;2.46;95.15;98357.45;105266;1271;61416;-77
2022/02/01 11:32:51;;;;;;;25.90;15.10;;;;;;;2.57;95.20;98352.02;105295;1271;61999;-78
2022/02/01 11:35:24;;;;;;;25.40;15.50;;;;;;;2.63;95.03;98354.06;105312;1271;75390;-78
2022/02/01 11:37:54;;;;;;;24.90;14.80;;;;;;;2.65;94.77;98353.64;105370;1271;69110;-77
2022/02/01 11:40:23;;;;;;;25.90;13.60;;;;;;;2.59;94.11;98355.13;105292;1270;73270;-76
2022/02/01 11:43:10;;;;;;;28.80;14.10;;;;;;;2.53;94.50;98350.85;105288;1270;61374;-76
2022/02/01 11:45:39;;;;;;;22.50;12.90;;;;;;;2.59;94.95;98353.36;105279;1270;61412;-76
2022/02/01 11:48:22;;;;;;;20.80;12.20;;;;;;;2.59;94.62;98356.36;105330;1271;73350;-75
2022/02/01 11:50:55;;;;;;;24.20;12.10;;;;;;;2.43;94.24;98354.98;105347;1270;69194;-75
2022/02/01 11:53:29;;;;;;;23.80;13.60;;;;;;;2.32;94.44;98350.38;105301;1271;73781;-76
2022/02/01 11:55:58;;;;;;;24.90;13.90;;;;;;;2.27;94.89;98346.73;105338;1271;61330;-77
2022/02/01 11:58:29;;;;;;;21.20;11.60;;;;;;;2.25;95.13;98343.64;105322;1271;61177;-76
2022/02/01 12:00:57;;;;;;;23.50;13.40;;;;;;;2.24;95.12;98340.55;105073;1271;76568;-75
2022/02/01 12:03:31;;;;;;;20.60;12.40;;;;;;;2.25;95.28;98339.11;105373;1271;70270;-76
2022/02/01 12:06:04;;;;;;;20.50;11.30;;;;;;;2.25;95.07;98334.92;105264;1271;73444;-76
2022/02/01 12:08:33;;;;;;;18.10;10.90;;;;;;;2.18;94.77;98329.75;105276;1269;61316;-74
2022/02/01 12:11:04;;;;;;;24.60;12.70;;;;;;;2.09;94.59;98326.82;105354;1271;61233;-76
2022/02/01 12:13:31;;;;;;;;;;;;;;;2.03;95.17;98323.94;105294;1271;75308;-76
2022/02/01 12:16:00;;;;;;;17.70;10.00;;;;;;;2.02;95.53;98321.70;105283;1271;70333;-77
2022/02/01 12:18:33;;;;;;;25.00;13.10;;;;;;;2.03;95.84;98319.20;105339;1271;74182;-76
2022/02/01 12:21:29;;;;;;;20.80;12.20;;;;;;;2.05;96.05;98317.02;105080;1271;61428;-76
2022/02/01 12:23:58;;;;;;;22.10;12.30;;;;;;;2.03;96.28;98315.88;105269;1270;61351;-76
2022/02/01 12:26:32;;;;;;;19.10;11.10;;;;;;;2.01;96.52;98310.55;105186;1271;75155;-75
2022/02/01 12:29:03;;;;;;;19.80;11.00;;;;;;;1.95;96.38;98311.66;105271;1270;68352;-77
2022/02/01 12:31:31;;;;;;;26.20;14.70;;;;;;;1.85;96.25;98312.96;105109;1271;71328;-77
2022/02/01 12:33:59;;;;;;;21.10;11.90;;;;;;;1.82;96.70;98309.76;105293;1269;61425;-76
2022/02/01 12:36:32;;;;;;;23.50;13.50;;;;;;;1.88;96.71;98303.23;105308;1270;61300;-76
2022/02/01 12:39:18;;;;;;;25.30;14.90;;;;;;;1.95;96.99;98300.45;105339;1271;75352;-77
2022/02/01 12:41:54;;;;;;;24.70;13.80;;;;;;;2.02;97.01;98293.83;105295;1271;69157;-77